University, MS

8:18 AM CST on February 12, 2016 (GMT -0600)
University-Oxford

Weather History for KUOX - February, 2014

Change the Weather History Date:

Friday, February 21, 2014

  Actual Average Record
Temperature  
Mean Temperature 44 °F -  
Max Temperature 57 °F 60 °F 80 °F (1986)
Min Temperature 32 °F 33 °F 18 °F (1959)
Degree Days  
Heating Degree Days 20    
Moisture  
Dew Point 26 °F    
Average Humidity 59    
Maximum Humidity 100    
Minimum Humidity 20    
Precipitation  
Precipitation 0.00 in - - ()
Sea Level Pressure  
Sea Level Pressure 30.10 in    
Wind  
Wind Speed 3 mph (NW)    
Max Wind Speed 13 mph    
Max Gust Speed 16 mph    
Visibility 10 miles    
Events      
Averages and records for this station are not official NWS values.
T = Trace of Precipitation, MM = Missing Value Source: NWS Daily Summary

Daily Weather History Graph

Daily Weather History Graph

Search for Another Location

Airport or City:

Trip Planner

Search our weather history database for the weather conditions in past years. The results will help you decide how hot, cold, wet, or windy it might be!

Date:

Astronomy

Feb. 21, 2014 Rise Set
Actual Time 6:36 AM CST 5:47 PM CST
Civil Twilight 6:11 AM CST 6:12 PM CST
Nautical Twilight 5:42 AM CST 6:42 PM CST
Astronomical Twilight 5:12 AM CST 7:11 PM CST
Moon No Moon Rise 10:18 AM CST (2/21)
Length of Visible Light 12h 01m
Length of Day
11h 10m
Waning Gibbous, 60% of the Moon is Illuminated
Feb 21
Waning Gibbous
Feb 22
Last Quarter
Mar 1
New
Mar 8
First Quarter
Mar 16
Full

Hourly Weather History & Observations

Time (CST) Temp. Windchill Dew Point Humidity Pressure Visibility Wind Dir Wind Speed Gust Speed Precip Events Conditions
12:15 AM 46.4 °F 44.3 °F 32.0 °F 57% 30.03 in 10.0 mi NNW 4.6 mph - N/A   Scattered Clouds
12:35 AM 46.4 °F 43.5 °F 32.0 °F 57% 30.04 in 10.0 mi NW 5.8 mph - N/A   Scattered Clouds
12:55 AM 44.6 °F 42.2 °F 32.0 °F 61% 30.04 in 10.0 mi NW 4.6 mph - N/A   Partly Cloudy
1:15 AM 42.8 °F 41.1 °F 32.0 °F 66% 30.03 in 10.0 mi NW 3.5 mph - N/A   Clear
1:35 AM 42.8 °F - 32.0 °F 66% 30.03 in 10.0 mi Calm Calm - N/A   Clear
1:55 AM 39.2 °F - 32.0 °F 75% 30.03 in 10.0 mi Calm Calm - N/A   Clear
2:15 AM 37.4 °F 34.9 °F 32.0 °F 81% 30.04 in 10.0 mi WNW 3.5 mph - N/A   Clear
2:35 AM 39.2 °F - 32.0 °F 75% 30.04 in 10.0 mi Calm Calm - N/A   Clear
2:55 AM 35.6 °F - 32.0 °F 87% 30.04 in 10.0 mi Calm Calm - N/A   Clear
3:15 AM 35.6 °F - 32.0 °F 87% 30.04 in 10.0 mi Calm Calm - N/A   Clear
3:35 AM 33.8 °F - 32.0 °F 93% 30.05 in 10.0 mi Calm Calm - N/A   Clear
3:55 AM 32.0 °F - 32.0 °F 100% 30.05 in 10.0 mi Calm Calm - N/A   Clear
4:15 AM 32.0 °F - 32.0 °F 100% 30.05 in 10.0 mi Calm Calm - N/A   Clear
4:35 AM 32.0 °F - 32.0 °F 100% 30.06 in 10.0 mi Calm Calm - N/A   Clear
4:55 AM 32.0 °F - 30.2 °F 93% 30.07 in 10.0 mi Calm Calm - N/A   Clear
5:15 AM 32.0 °F - 30.2 °F 93% 30.07 in 10.0 mi Calm Calm - N/A   Clear
5:35 AM 32.0 °F - 30.2 °F 93% 30.07 in 10.0 mi Calm Calm - N/A   Clear
5:55 AM 32.0 °F - 30.2 °F 93% 30.08 in 10.0 mi Calm Calm - N/A   Clear
6:15 AM 32.0 °F - 30.2 °F 93% 30.09 in 10.0 mi Calm Calm - N/A   Clear
6:35 AM 32.0 °F - 28.4 °F 87% 30.10 in 10.0 mi Calm Calm - N/A   Clear
6:55 AM 32.0 °F - 30.2 °F 93% 30.10 in 10.0 mi Calm Calm - N/A   Clear
7:15 AM 32.0 °F - 30.2 °F 93% 30.11 in 10.0 mi Calm Calm - N/A   Clear
7:35 AM 33.8 °F - 32.0 °F 93% 30.12 in 10.0 mi Calm Calm - N/A   Clear
7:55 AM 37.4 °F - 33.8 °F 87% 30.13 in 10.0 mi Calm Calm - N/A   Clear
8:15 AM 41.0 °F 39.0 °F 32.0 °F 70% 30.13 in 10.0 mi WNW 3.5 mph - N/A   Clear
8:35 AM 44.6 °F 41.4 °F 32.0 °F 61% 30.13 in 10.0 mi NW 5.8 mph - N/A   Clear
8:55 AM 46.4 °F 43.5 °F 30.2 °F 53% 30.13 in 10.0 mi NW 5.8 mph - N/A   Clear
9:15 AM 46.4 °F 42.4 °F 28.4 °F 50% 30.13 in 10.0 mi NW 8.1 mph - N/A   Clear
9:35 AM 48.2 °F - 24.8 °F 40% 30.14 in 10.0 mi NW 9.2 mph - N/A   Clear
9:55 AM 50.0 °F - 19.4 °F 30% 30.15 in 10.0 mi NW 12.7 mph - N/A   Clear
10:15 AM 50.0 °F - 23.0 °F 35% 30.15 in 10.0 mi NW 9.2 mph - N/A   Clear
10:35 AM 50.0 °F - 24.8 °F 37% 30.15 in 10.0 mi NW 9.2 mph 16.1 mph N/A   Clear
10:55 AM 51.8 °F - 23.0 °F 33% 30.15 in 10.0 mi WNW 6.9 mph - N/A   Clear
11:15 AM 51.8 °F - 23.0 °F 33% 30.14 in 10.0 mi North 9.2 mph - N/A   Clear
11:35 AM 53.6 °F - 19.4 °F 26% 30.14 in 10.0 mi WNW 10.4 mph - N/A   Clear
11:55 AM 53.6 °F - 19.4 °F 26% 30.13 in 10.0 mi NW 6.9 mph - N/A   Clear
12:15 PM 55.4 °F - 19.4 °F 25% 30.12 in 10.0 mi NNE 9.2 mph - N/A   Clear
12:35 PM 55.4 °F - 19.4 °F 25% 30.11 in 10.0 mi North 4.6 mph - N/A   Clear
12:55 PM 55.4 °F - 17.6 °F 23% 30.11 in 10.0 mi WNW 6.9 mph - N/A   Clear
1:15 PM 55.4 °F - 17.6 °F 23% 30.10 in 10.0 mi SSW 3.5 mph - N/A   Clear
1:35 PM 55.4 °F - 17.6 °F 23% 30.09 in 10.0 mi SW 6.9 mph - N/A   Clear
1:55 PM 55.4 °F - 17.6 °F 23% 30.09 in 10.0 mi NW 6.9 mph - N/A   Clear
2:15 PM 55.4 °F - 15.8 °F 21% 30.09 in 10.0 mi WNW 4.6 mph - N/A   Clear
2:35 PM 57.2 °F - 17.6 °F 21% 30.09 in 10.0 mi SW 3.5 mph - N/A   Clear
2:55 PM 55.4 °F - 15.8 °F 21% 30.08 in 10.0 mi East 3.5 mph - N/A   Clear
3:15 PM 57.2 °F - 15.8 °F 20% 30.08 in 10.0 mi Calm Calm - N/A   Clear
3:35 PM 57.2 °F - 15.8 °F 20% 30.08 in 10.0 mi Calm Calm - N/A   Clear
3:55 PM 57.2 °F - 15.8 °F 20% 30.08 in 10.0 mi Calm Calm - N/A   Clear
4:15 PM 57.2 °F - 15.8 °F 20% 30.09 in 10.0 mi WSW 3.5 mph - N/A   Clear
4:35 PM 55.4 °F - 15.8 °F 21% 30.09 in 10.0 mi West 5.8 mph - N/A   Clear
4:55 PM 55.4 °F - 15.8 °F 21% 30.09 in 10.0 mi WSW 3.5 mph - N/A   Clear
5:15 PM 55.4 °F - 14.0 °F 20% 30.09 in 7.0 mi Calm Calm - N/A   Clear
5:35 PM 53.6 °F - 17.6 °F 24% 30.08 in 10.0 mi Calm Calm - N/A   Clear
5:55 PM 50.0 °F - 23.0 °F 35% 30.09 in 10.0 mi Calm Calm - N/A   Clear
6:15 PM 46.4 °F - 24.8 °F 43% 30.09 in 9.0 mi Calm Calm - N/A   Clear
6:35 PM 44.6 °F - 28.4 °F 53% 30.09 in 10.0 mi Calm Calm - N/A   Clear
6:55 PM 42.8 °F - 26.6 °F 53% 30.10 in 10.0 mi Calm Calm - N/A   Clear
7:15 PM 41.0 °F 39.0 °F 28.4 °F 61% 30.10 in 10.0 mi NW 3.5 mph - N/A   Clear
7:35 PM 39.2 °F - 28.4 °F 65% 30.11 in 10.0 mi Calm Calm - N/A   Clear
7:55 PM 39.2 °F - 28.4 °F 65% 30.11 in 10.0 mi Calm Calm - N/A   Unknown
8:15 PM 37.4 °F - 28.4 °F 70% 30.11 in 10.0 mi Calm Calm - N/A   Clear
8:35 PM 37.4 °F - 28.4 °F 70% 30.12 in 10.0 mi Calm Calm - N/A   Clear
8:55 PM 35.6 °F - 28.4 °F 75% 30.12 in 10.0 mi Calm Calm - N/A   Clear
9:15 PM 35.6 °F - 28.4 °F 75% 30.12 in 10.0 mi Calm Calm - N/A   Clear
9:35 PM 33.8 °F - 28.4 °F 81% 30.12 in 10.0 mi Calm Calm - N/A   Clear
9:55 PM 33.8 °F - 28.4 °F 81% 30.13 in 10.0 mi Calm Calm - N/A   Clear
10:15 PM 33.8 °F - 28.4 °F 81% 30.13 in 10.0 mi Calm Calm - N/A   Clear
10:35 PM 32.0 °F - 28.4 °F 87% 30.13 in 10.0 mi Calm Calm - N/A   Clear
10:55 PM 33.8 °F - 28.4 °F 81% 30.13 in 10.0 mi Calm Calm - N/A   Clear
11:15 PM 32.0 °F - 28.4 °F 87% 30.13 in 10.0 mi Calm Calm - N/A   Clear
11:35 PM 32.0 °F 28.7 °F 28.4 °F 87% 30.14 in 10.0 mi East 3.5 mph - N/A   Clear
11:55 PM 32.0 °F - 28.4 °F 87% 30.14 in 10.0 mi Calm Calm - N/A   Clear